Aérodrome :
LOGIN :

S'inscrire | Disclaimer

   EN    FR    IT 

 










Légende :    VFR   VFR Marginal   IFR   IFR Intensif   IFR Très Intensif
Visi : 
Plafond : 
>= 8 km
>= 3000ft
5 à 8 km
1000 à 3000 ft
1500m à 5 km
500 à 1000 ft
800 à 1500m
200 à 500 ft
< 800m
< 200 ft
Symboles :   Orages  Brouillard  Fortes neiges  Fortes précipitations  Vent > 20 kt
SIGMETs :   Divers  Orages  Givrage  Turbulence  Onde Orograph.  Cendres Volcan.






- Altitude de l'aérodrome : 76 ft
- Code IATA : KID


ESMK - Kristianstad

DERNIER METAR :
  • 090120Z AUTO 24006KT 9999 SCT140/// 08/03 Q1017

METARs EXPIRÉS :
  • 090050Z AUTO 26006KT 9999 NCD 08/03 Q1017
  • 090020Z AUTO 26009KT 9999 FEW170/// 09/03 Q1017
  • 082350Z AUTO 26009KT 9999 NCD 09/02 Q1017
  • 082320Z AUTO 25006KT 180V260 9999 FEW110/// BKN130/// 10/02 Q1018
  • 082250Z AUTO 18003KT 9999 BKN110/// OVC140/// 05/00 Q1018
  • 082220Z AUTO 18003KT 9999 SCT120/// 03/M01 Q1018

Prévision TAF périmée.



MET'MAP, la Météo Aéronautique d'un coup d'oeil ! - Copyright ORBIFLY Décembre 2007 - Disclaimer

ORBIFLY MET'MAP TEAM :

Programmation & Développement : Alexandra Zaïnal
Sur une idée originale de : Baudouin d'Aumeries
Assistance à la programmation : Marc-Olivier Méhu
Soutien technique & logistique : Manuel Goepfert

Contact : metmap@orbifly.com




SOURCES & CREDITS :

   NOAA